Time;durP1;ratioP1;P1;durP2;ratioP2;P2;SDS_P1;SDS_P2;PMS_P1;PMS_P2;Temp;Humidity;BMP_temperature;BMP_pressure;BME280_temperature;BME280_humidity;BME280_pressure;Samples;Min_cycle;Max_cycle;Signal;HPM_P1;HPM_P2
2022/06/12 00:00:46;;;;;;;;;3.67;3.33;;;;;19.87;44.90;102090.91;6251057;22;47994;-82
2022/06/12 00:03:15;;;;;;;;;6.00;4.75;;;;;19.83;45.42;102089.22;6250406;22;45487;-81
2022/06/12 00:05:43;;;;;;;;;3.00;3.00;;;;;19.80;45.22;102092.81;6278315;22;45280;-81
2022/06/12 00:08:09;;;;;;;;;3.00;3.00;;;;;19.75;45.48;102088.47;6250579;22;45281;-81
2022/06/12 00:10:38;;;;;;;;;11.25;9.75;;;;;19.74;46.27;102081.38;6278851;22;45520;-81
2022/06/12 00:13:06;;;;;;;;;8.50;8.50;;;;;19.72;46.66;102083.22;6278612;22;45455;-82
2022/06/12 00:15:32;;;;;;;;;11.75;9.25;;;;;19.70;47.02;102079.69;6278929;22;45307;-81
2022/06/12 00:17:59;;;;;;;;;7.75;6.75;;;;;19.67;47.26;102085.09;6250817;22;45341;-81
2022/06/12 00:20:25;;;;;;;;;10.50;8.25;;;;;19.67;47.68;102093.09;6278884;22;46233;-82
2022/06/12 00:22:53;;;;;;;;;8.25;6.50;;;;;19.65;47.60;102090.44;6251059;22;45511;-81
2022/06/12 00:25:20;;;;;;;;;8.00;8.00;;;;;19.63;47.40;102094.06;6279458;22;45233;-82
2022/06/12 00:27:46;;;;;;;;;9.00;7.75;;;;;19.63;47.59;102081.56;6252043;22;45655;-82
2022/06/12 00:30:15;;;;;;;;;8.50;7.00;;;;;19.59;47.56;102088.78;6278727;22;46132;-81
2022/06/12 00:32:41;;;;;;;;;4.25;4.25;;;;;19.52;48.28;102086.25;6250945;22;45208;-81
2022/06/12 00:35:08;;;;;;;;;4.25;4.25;;;;;19.50;47.82;102090.75;6276685;22;45284;-81
2022/06/12 00:37:36;;;;;;;;;5.50;4.75;;;;;19.47;47.63;102091.69;6250958;22;45406;-81
2022/06/12 00:40:03;;;;;;;;;5.00;5.00;;;;;19.44;47.83;102094.41;6276436;22;47019;-82
2022/06/12 00:42:33;;;;;;;;;8.75;7.50;;;;;19.43;48.18;102097.97;6250715;22;45179;-81
2022/06/12 00:45:02;;;;;;;;;6.50;4.50;;;;;19.42;47.85;102100.69;6278941;22;45319;-81
2022/06/12 00:47:28;;;;;;;;;4.50;4.50;;;;;19.38;47.98;102099.88;6250926;22;45505;-81
2022/06/12 00:49:53;;;;;;;;;10.75;7.00;;;;;19.37;48.41;102098.97;6250461;22;47312;-82
2022/06/12 00:52:34;;;;;;;;;5.00;5.00;;;;;19.33;48.03;102089.28;6276214;22;45158;-82
2022/06/12 00:55:14;;;;;;;;;6.75;6.00;;;;;19.30;48.28;102089.34;6278655;22;45362;-81
2022/06/12 00:57:40;;;;;;;;;6.00;6.00;;;;;19.26;48.07;102090.28;6278389;22;45197;-82
2022/06/12 01:00:11;;;;;;;;;3.33;3.00;;;;;19.23;48.66;102093.00;6250407;22;46434;-81
2022/06/12 01:02:38;;;;;;;;;4.00;3.67;;;;;19.21;48.59;102091.28;6277207;22;45396;-81
2022/06/12 01:07:57;;;;;;;;;4.75;4.75;;;;;19.14;48.45;102094.06;6278054;22;45197;-82
2022/06/12 01:10:25;;;;;;;;;5.25;5.00;;;;;19.09;48.68;102101.28;6277710;22;46605;-82
2022/06/12 01:12:57;;;;;;;;;8.50;7.00;;;;;19.02;48.78;102102.28;6250050;22;45372;-81
2022/06/12 01:15:27;;;;;;;;;8.00;8.00;;;;;18.99;48.36;102096.13;6250393;22;45288;-82
2022/06/12 01:17:55;;;;;;;;;10.00;6.50;;;;;18.98;48.77;102105.00;6278421;22;45216;-81
2022/06/12 01:20:25;;;;;;;;;7.75;6.25;;;;;18.88;48.38;102097.19;6278002;22;45433;-81
2022/06/12 01:23:32;;;;;;;;;9.25;6.00;;;;;18.88;48.58;102102.50;6277911;22;45232;-82
2022/06/12 01:26:05;;;;;;;;;4.75;4.75;;;;;18.84;48.87;102094.56;6250287;22;45214;-80
2022/06/12 01:28:49;;;;;;;;;6.75;5.50;;;;;18.81;48.83;102106.19;6278293;22;45201;-81
2022/06/12 01:31:23;;;;;;;;;5.00;4.75;;;;;18.76;48.70;102104.50;6278478;22;46057;-81
2022/06/12 01:34:11;;;;;;;;;3.50;3.50;;;;;18.72;49.09;102104.50;6276558;22;45193;-81
2022/06/12 01:37:01;;;;;;;;;5.00;4.50;;;;;18.71;48.90;102100.09;6279317;22;45204;-82
2022/06/12 01:40:02;;;;;;;;;7.00;6.00;;;;;18.65;49.43;102093.97;6278730;22;45301;-81
2022/06/12 01:42:43;;;;;;;;;4.75;4.00;;;;;18.62;49.04;102099.34;6251331;22;47837;-80
2022/06/12 01:45:27;;;;;;;;;4.00;4.00;;;;;18.54;49.36;102096.78;6251824;22;45420;-81
2022/06/12 01:48:04;;;;;;;;;3.50;3.50;;;;;18.47;49.61;102106.69;6278723;22;45438;-81
2022/06/12 01:50:44;;;;;;;;;5.25;4.00;;;;;18.41;49.66;102111.22;6278926;22;45158;-80
2022/06/12 01:53:17;;;;;;;;;3.50;3.00;;;;;18.35;49.42;102116.63;6279977;22;46280;-82
2022/06/12 01:55:49;;;;;;;;;4.75;4.75;;;;;18.29;50.03;102115.81;6294648;22;45090;-82
2022/06/12 01:58:17;;;;;;;;;5.25;5.00;;;;;18.25;49.95;102119.41;6270540;22;44611;-81
2022/06/12 02:00:49;;;;;;;;;4.75;4.25;;;;;18.18;50.37;102104.44;6295862;22;45381;-80
2022/06/12 02:03:31;;;;;;;;;2.25;2.25;;;;;18.18;49.97;102117.75;6296637;22;45017;-81
2022/06/12 02:06:11;;;;;;;;;4.00;4.00;;;;;18.16;50.19;102111.56;6289254;22;45351;-81
2022/06/12 02:08:42;;;;;;;;;6.00;6.00;;;;;18.14;50.01;102115.13;6281429;22;45164;-80
2022/06/12 02:14:30;;;;;;;;;5.00;3.75;;;;;18.10;49.97;102114.31;6279403;22;45184;-81
2022/06/12 02:17:00;;;;;;;;;4.00;3.00;;;;;18.11;50.20;102126.72;6252898;22;45384;-80
2022/06/12 02:19:33;;;;;;;;;3.75;3.75;;;;;18.10;50.33;102113.44;6252632;22;45133;-81
2022/06/12 02:22:23;;;;;;;;;3.50;2.50;;;;;18.09;50.45;102112.53;6251782;22;45188;-81
2022/06/12 02:24:53;;;;;;;;;2.00;2.00;;;;;18.06;50.88;102112.56;6279798;22;46014;-81
2022/06/12 02:27:27;;;;;;;;;2.25;2.25;;;;;18.00;50.66;102116.19;6279410;22;45161;-81
2022/06/12 02:29:55;;;;;;;;;1.25;1.25;;;;;18.00;51.07;102116.19;6278398;22;45247;-81
2022/06/12 02:32:38;;;;;;;;;3.75;3.00;;;;;18.00;50.90;102121.53;6281355;22;45143;-81
2022/06/12 02:35:18;;;;;;;;;4.00;3.00;;;;;17.97;50.61;102120.69;6251503;22;47393;-81
2022/06/12 02:37:51;;;;;;;;;2.00;2.00;;;;;17.95;50.75;102119.81;6276940;22;45394;-80
2022/06/12 02:40:30;;;;;;;;;4.50;3.50;;;;;17.92;51.05;102112.75;6277731;22;45118;-80
2022/06/12 02:42:59;;;;;;;;;4.00;4.00;;;;;17.93;50.62;102110.97;6251777;22;45450;-80
2022/06/12 02:45:44;;;;;;;;;3.75;3.75;;;;;17.92;51.08;102112.75;6251420;22;46944;-81
2022/06/12 02:48:09;;;;;;;;;3.25;3.25;;;;;17.88;51.12;102121.66;6279875;22;45214;-80
2022/06/12 02:50:51;;;;;;;;;3.75;3.25;;;;;17.83;51.40;102119.06;6279513;22;45449;-81
2022/06/12 02:53:19;;;;;;;;;6.75;4.00;;;;;17.84;51.62;102122.63;6277734;22;45292;-81
2022/06/12 02:56:08;;;;;;;;;3.00;3.00;;;;;17.82;51.58;102111.97;6277734;22;47696;-81
2022/06/12 02:58:45;;;;;;;;;6.50;5.50;;;;;17.78;51.42;102110.22;6251995;22;45678;-81
2022/06/12 03:01:15;;;;;;;;;3.00;3.00;;;;;17.79;51.64;102117.34;6280072;22;45406;-81
2022/06/12 03:03:52;;;;;;;;;2.50;2.00;;;;;17.78;51.59;102128.00;6251345;22;45497;-81
2022/06/12 03:06:18;;;;;;;;;3.50;3.25;;;;;17.69;51.77;102120.09;6278661;22;46051;-80
2022/06/12 03:08:47;;;;;;;;;4.50;4.50;;;;;17.68;51.29;102121.00;6253703;22;46542;-82
2022/06/12 03:11:22;;;;;;;;;7.25;4.75;;;;;17.66;51.93;102118.34;6283151;22;45271;-81
2022/06/12 03:13:50;;;;;;;;;7.00;6.50;;;;;17.64;52.33;102117.47;6256039;22;45453;-81
2022/06/12 03:16:20;;;;;;;;;4.25;3.00;;;;;17.62;51.80;102122.81;6252803;22;46264;-81
2022/06/12 03:18:54;;;;;;;;;2.75;2.75;;;;;17.59;52.07;102119.31;6282789;22;45202;-80
2022/06/12 03:21:28;;;;;;;;;3.75;3.75;;;;;17.55;52.08;102115.78;6280738;22;45255;-81
2022/06/12 03:24:23;;;;;;;;;4.75;4.75;;;;;17.51;52.15;102119.41;6258092;22;45791;-80
2022/06/12 03:27:08;;;;;;;;;2.75;2.25;;;;;17.50;52.36;102125.59;6295889;22;46225;-81
2022/06/12 03:30:01;;;;;;;;;5.25;3.00;;;;;17.47;52.67;102127.44;6295112;22;45253;-80
2022/06/12 03:33:07;;;;;;;;;2.25;2.25;;;;;17.45;52.70;102119.44;6271293;22;44706;-80
2022/06/12 03:35:52;;;;;;;;;4.25;3.00;;;;;17.44;52.49;102128.34;6241192;22;45173;-80
2022/06/12 03:38:42;;;;;;;;;2.25;2.25;;;;;17.42;52.32;102124.81;6277819;22;47243;-81
2022/06/12 03:41:25;;;;;;;;;4.25;3.00;;;;;17.40;52.48;102122.19;6279607;22;45255;-81
2022/06/12 03:44:21;;;;;;;;;1.25;1.25;;;;;17.39;52.76;102122.19;6251547;22;45389;-81
2022/06/12 03:46:52;;;;;;;;;4.00;3.00;;;;;17.37;52.70;102115.97;6251389;22;45586;-81
2022/06/12 03:49:40;;;;;;;;;5.50;4.00;;;;;17.34;52.90;102124.00;6278896;22;45216;-81
2022/06/12 03:52:19;;;;;;;;;3.75;3.75;;;;;17.32;52.71;102113.38;6251088;22;45673;-81
2022/06/12 03:54:47;;;;;;;;;2.00;1.50;;;;;17.34;53.09;102114.22;6279448;22;45244;-81
2022/06/12 04:00:15;;;;;;;;;3.25;2.25;;;;;17.35;52.79;102118.69;6278797;22;45212;-81
2022/06/12 04:02:42;;;;;;;;;5.25;4.00;;;;;17.31;52.72;102108.94;6251175;22;45290;-81
2022/06/12 04:05:14;;;;;;;;;2.25;2.25;;;;;17.34;52.75;102122.22;6279059;22;45175;-81
2022/06/12 04:07:46;;;;;;;;;3.00;3.00;;;;;17.30;53.00;102106.31;6278842;22;45514;-81
2022/06/12 04:10:19;;;;;;;;;4.00;2.00;;;;;17.31;53.27;102106.28;6279482;22;45378;-81
2022/06/12 04:12:45;;;;;;;;;3.00;3.00;;;;;17.28;53.18;102102.78;6279034;22;45314;-80
2022/06/12 04:15:26;;;;;;;;;3.25;2.75;;;;;17.30;53.15;102108.97;6279274;22;45446;-81
2022/06/12 04:17:51;;;;;;;;;3.00;2.00;;;;;17.26;53.25;102109.88;6278590;22;45432;-81
2022/06/12 04:20:25;;;;;;;;;3.50;3.00;;;;;17.24;53.34;102115.25;6278702;22;45402;-81
2022/06/12 04:23:01;;;;;;;;;5.25;4.50;;;;;17.23;53.29;102108.13;6250904;22;45205;-80
2022/06/12 04:25:30;;;;;;;;;7.75;4.50;;;;;17.20;53.35;102103.72;6279038;22;45188;-81
2022/06/12 04:27:55;;;;;;;;;4.75;4.00;;;;;17.19;53.73;102103.75;6251099;22;45508;-80
2022/06/12 04:30:29;;;;;;;;;6.50;5.25;;;;;17.20;53.52;102113.50;6251103;22;47758;-81
2022/06/12 04:33:18;;;;;;;;;3.75;3.75;;;;;17.22;53.62;102121.47;6279636;22;45379;-81
2022/06/12 04:35:50;;;;;;;;;3.25;3.25;;;;;17.21;53.67;102128.53;6250334;22;45403;-81
2022/06/12 04:38:15;;;;;;;;;3.50;3.25;;;;;17.20;54.01;102119.69;6278567;22;45302;-80
2022/06/12 04:40:41;;;;;;;;;4.25;4.25;;;;;17.19;53.94;102122.38;6278854;22;45912;-81
2022/06/12 04:43:06;;;;;;;;;5.00;4.00;;;;;17.17;54.23;102125.03;6276681;22;45314;-81
2022/06/12 04:45:32;;;;;;;;;5.00;4.50;;;;;17.15;54.14;102128.59;6279113;22;45531;-81
2022/06/12 04:47:58;;;;;;;;;3.00;3.00;;;;;17.14;54.12;102122.41;6251194;22;45513;-81
2022/06/12 04:50:23;;;;;;;;;4.25;3.00;;;;;17.18;54.05;102129.47;6276634;22;46086;-80
2022/06/12 04:52:49;;;;;;;;;3.00;3.00;;;;;17.20;54.21;102121.47;6278817;22;45145;-80
2022/06/12 04:55:14;;;;;;;;;4.50;3.75;;;;;17.18;53.93;102116.16;6279221;22;45196;-81
2022/06/12 04:57:40;;;;;;;;;3.00;3.00;;;;;17.16;53.77;102117.97;6278984;22;45173;-81
2022/06/12 05:00:07;;;;;;;;;5.00;3.00;;;;;17.18;54.07;102115.28;6278919;22;45719;-81
2022/06/12 05:02:32;;;;;;;;;5.00;4.00;;;;;17.16;54.57;102114.41;6278753;22;45141;-80
2022/06/12 05:04:58;;;;;;;;;3.50;3.00;;;;;17.17;54.08;102119.72;6278841;22;45135;-80
2022/06/12 05:07:23;;;;;;;;;5.50;3.75;;;;;17.17;54.29;102118.84;6278503;22;45434;-80
2022/06/12 05:09:49;;;;;;;;;4.50;4.50;;;;;17.16;54.28;102106.41;6277771;22;46116;-81
2022/06/12 05:12:15;;;;;;;;;6.00;3.00;;;;;17.22;54.75;102113.50;6278542;22;45228;-81
2022/06/12 05:14:41;;;;;;;;;4.50;3.75;;;;;17.23;54.29;102113.44;6251285;22;45335;-81
2022/06/12 05:17:12;;;;;;;;;3.00;3.00;;;;;17.25;54.54;102113.44;6277806;22;45411;-81
2022/06/12 05:19:40;;;;;;;;;5.33;2.67;;;;;17.25;54.24;102106.34;6279450;22;45337;-80
2022/06/12 05:22:07;;;;;;;;;6.00;5.50;;;;;17.25;54.34;102108.13;6279061;22;45316;-81
2022/06/12 05:24:34;;;;;;;;;3.25;3.25;;;;;17.25;54.63;102102.81;6251166;22;45414;-81
2022/06/12 05:27:00;;;;;;;;;5.25;4.00;;;;;17.25;54.48;102100.16;6276835;22;45489;-81
2022/06/12 05:29:29;;;;;;;;;5.75;4.00;;;;;17.26;54.59;102110.75;6251144;22;47973;-81
2022/06/12 05:31:56;;;;;;;;;5.25;3.75;;;;;17.27;54.69;102109.88;6278673;22;45251;-81
2022/06/12 05:34:25;;;;;;;;;3.75;3.75;;;;;17.27;54.79;102106.31;6276578;22;45391;-81
2022/06/12 05:36:50;;;;;;;;;5.00;3.75;;;;;17.35;54.61;102112.47;6250586;22;45550;-81
2022/06/12 05:39:16;;;;;;;;;6.50;4.75;;;;;17.31;54.62;102100.06;6278443;22;45129;-81
2022/06/12 05:41:41;;;;;;;;;4.00;3.25;;;;;17.34;54.64;102100.91;6250739;22;45667;-81
2022/06/12 05:44:07;;;;;;;;;5.75;4.75;;;;;17.41;54.79;102109.75;6250781;22;45119;-81
2022/06/12 05:46:34;;;;;;;;;3.25;3.25;;;;;17.38;54.44;102102.66;6250820;22;45442;-81
2022/06/12 05:49:00;;;;;;;;;5.00;5.00;;;;;17.44;54.65;102106.16;6276865;22;46181;-81
2022/06/12 05:51:26;;;;;;;;;5.75;3.00;;;;;17.42;54.42;102115.03;6278254;22;45263;-81
2022/06/12 05:53:51;;;;;;;;;3.75;3.75;;;;;17.49;54.35;102125.63;6278579;22;45296;-81
2022/06/12 05:56:19;;;;;;;;;5.00;3.00;;;;;17.48;54.25;102118.53;6278490;22;45489;-82
2022/06/12 05:58:46;;;;;;;;;6.00;4.25;;;;;17.49;54.43;102115.88;6278329;22;45215;-81
2022/06/12 06:01:14;;;;;;;;;5.50;3.50;;;;;17.50;54.14;102125.59;6250482;22;45202;-81
2022/06/12 06:03:40;;;;;;;;;3.00;3.00;;;;;17.52;53.99;102121.16;6250030;22;45263;-81
2022/06/12 06:06:08;;;;;;;;;4.00;4.00;;;;;17.55;54.29;102129.09;6277967;22;45494;-81
2022/06/12 06:08:34;;;;;;;;;3.00;3.00;;;;;17.58;54.01;102134.41;6277971;22;45342;-82
2022/06/12 06:11:00;;;;;;;;;4.75;3.75;;;;;17.63;54.08;102135.22;6250370;22;45279;-81
2022/06/12 06:13:25;;;;;;;;;3.50;2.25;;;;;17.67;53.99;102128.13;6278242;22;45157;-81
2022/06/12 06:15:51;;;;;;;;;5.75;4.25;;;;;17.73;53.89;102138.69;6250202;22;45421;-81
2022/06/12 06:18:18;;;;;;;;;6.00;3.50;;;;;17.74;53.66;102128.91;6278146;22;45189;-81
2022/06/12 06:20:44;;;;;;;;;3.50;3.50;;;;;17.77;53.36;102134.19;6249900;22;45178;-81
2022/06/12 06:23:10;;;;;;;;;4.00;4.00;;;;;17.78;53.69;102142.19;6249997;22;45437;-81
2022/06/12 06:25:37;;;;;;;;;4.00;4.00;;;;;17.76;53.41;102133.31;6278196;22;45413;-82
2022/06/12 06:28:03;;;;;;;;;2.50;2.50;;;;;17.80;53.62;102143.09;6275981;22;47022;-80
2022/06/12 06:30:29;;;;;;;;;5.50;3.00;;;;;17.79;53.56;102133.31;6250062;22;45420;-80
2022/06/12 06:32:54;;;;;;;;;3.50;3.50;;;;;17.82;53.39;102148.38;6278060;22;45227;-80
2022/06/12 06:35:20;;;;;;;;;2.75;2.75;;;;;17.82;53.52;102143.94;6277813;22;45304;-80
2022/06/12 06:37:48;;;;;;;;;5.00;5.00;;;;;17.83;53.28;102140.38;6277719;22;45243;-80
2022/06/12 06:40:18;;;;;;;;;5.25;3.75;;;;;17.87;53.32;102146.56;6278198;22;45480;-80
2022/06/12 06:42:43;;;;;;;;;3.00;3.00;;;;;17.90;53.54;102153.63;6250047;22;45186;-80
2022/06/12 06:47:55;;;;;;;;;5.00;5.00;;;;;17.95;52.94;102155.34;6277617;22;45713;-79
2022/06/12 06:50:22;;;;;;;;;4.00;4.00;;;;;17.98;53.51;102139.31;6249880;22;45161;-79
2022/06/12 06:52:48;;;;;;;;;4.50;3.75;;;;;18.01;53.06;102135.72;6275825;22;45204;-78
2022/06/12 06:55:14;;;;;;;;;5.25;3.00;;;;;18.05;52.72;102148.13;6277970;22;45468;-79
2022/06/12 06:57:42;;;;;;;;;3.00;3.00;;;;;18.11;53.13;102144.50;6277725;22;45392;-78
2022/06/12 07:00:10;;;;;;;;;5.00;3.75;;;;;18.16;52.78;102150.66;6249978;22;45218;-81
2022/06/12 07:02:36;;;;;;;;;4.75;4.25;;;;;18.19;52.74;102145.28;6251060;22;45256;-81
2022/06/12 07:05:02;;;;;;;;;4.75;3.75;;;;;18.25;53.03;102148.75;6278848;22;45194;-80
2022/06/12 07:07:27;;;;;;;;;5.00;3.50;;;;;18.30;53.12;102144.22;6250815;22;48026;-80
2022/06/12 07:09:53;;;;;;;;;6.50;4.00;;;;;18.37;52.74;102150.38;6281055;22;45114;-80
2022/06/12 07:12:18;;;;;;;;;8.75;5.25;;;;;18.43;52.87;102144.94;6278918;22;45446;-83
2022/06/12 07:14:44;;;;;;;;;7.00;5.50;;;;;18.51;52.85;102147.50;6279663;22;45353;-84
2022/06/12 07:17:11;;;;;;;;;4.75;4.75;;;;;18.59;52.01;102152.75;6279484;22;46308;-82
2022/06/12 07:19:37;;;;;;;;;6.50;5.50;;;;;18.63;52.25;102154.44;6251416;22;45291;-85
2022/06/12 07:22:02;;;;;;;;;6.00;4.00;;;;;18.70;52.08;102149.00;6277153;22;45493;-84
2022/06/12 07:24:28;;;;;;;;;6.50;4.75;;;;;18.80;51.78;102157.78;6251385;22;45489;-84
2022/06/12 07:26:54;;;;;;;;;8.50;4.25;;;;;18.88;51.51;102157.69;6278418;22;48221;-83
2022/06/12 07:29:21;;;;;;;;;6.25;3.75;;;;;18.94;51.27;102163.78;6277257;22;45644;-81
2022/06/12 07:31:47;;;;;;;;;5.75;3.25;;;;;19.03;51.37;102151.19;6251854;22;45153;-81
2022/06/12 07:34:14;;;;;;;;;5.50;5.50;;;;;19.08;51.27;102154.69;6279769;22;45209;-81
2022/06/12 07:36:43;;;;;;;;;3.75;3.75;;;;;19.14;50.91;102152.81;6278772;22;46118;-81
2022/06/12 07:39:12;;;;;;;;;7.25;6.00;;;;;19.17;50.86;102152.75;6251224;22;45294;-80
2022/06/12 07:41:38;;;;;;;;;4.33;4.00;;;;;19.24;51.13;102157.97;6251320;22;45241;-81
2022/06/12 07:44:05;;;;;;;;;7.00;7.00;;;;;19.30;50.52;102155.19;6250613;22;45422;-80
2022/06/12 07:46:30;;;;;;;;;4.00;4.00;;;;;19.37;50.47;102154.19;6278965;22;45374;-81
2022/06/12 07:48:56;;;;;;;;;2.50;2.50;;;;;19.43;50.03;102148.72;6276388;22;45316;-81
2022/06/12 07:51:22;;;;;;;;;4.25;4.00;;;;;19.48;50.22;102157.53;6277228;22;45333;-81
2022/06/12 07:53:49;;;;;;;;;5.50;4.75;;;;;19.55;49.68;102150.31;6276785;22;45745;-82
2022/06/12 07:56:17;;;;;;;;;4.00;3.00;;;;;19.62;49.49;102151.97;6251237;22;48294;-81
2022/06/12 07:58:43;;;;;;;;;2.33;2.33;;;;;19.68;48.90;102151.88;6251101;22;45709;-81
2022/06/12 08:01:11;;;;;;;;;3.33;3.00;;;;;19.73;48.83;102149.13;6279261;22;45184;-81
2022/06/12 08:03:37;;;;;;;;;5.00;4.00;;;;;19.79;49.21;102155.22;6277930;22;45501;-79
2022/06/12 08:06:03;;;;;;;;;3.67;1.67;;;;;19.89;48.94;102150.56;6278500;22;46448;-80
2022/06/12 08:08:29;;;;;;;;;4.50;2.00;;;;;19.97;48.56;102153.09;6251420;22;45798;-78
2022/06/12 08:10:55;;;;;;;;;4.00;2.00;;;;;20.07;47.93;102153.78;6279268;22;45253;-79
2022/06/12 08:13:23;;;;;;;;;2.00;2.00;;;;;20.16;46.71;102153.59;6278462;22;45185;-80
2022/06/12 08:15:50;;;;;;;;;3.33;3.33;;;;;20.24;46.99;102147.16;6250551;22;47098;-80
2022/06/12 08:18:21;;;;;;;;;3.00;3.00;;;;;20.35;46.62;102151.41;6278582;22;45358;-82
2022/06/12 08:20:51;;;;;;;;;3.67;3.67;;;;;20.42;46.40;102147.66;6250457;22;45292;-82
2022/06/12 08:23:27;;;;;;;;;3.33;2.00;;;;;20.48;46.44;102137.72;6278846;22;45347;-84
2022/06/12 08:26:04;;;;;;;;;5.00;4.00;;;;;20.58;46.28;102137.53;6250596;22;47974;-81
2022/06/12 08:28:35;;;;;;;;;3.67;3.33;;;;;20.66;46.06;102144.47;6278759;22;45185;-81
2022/06/12 08:31:06;;;;;;;;;2.50;2.50;;;;;20.75;45.96;102139.81;6250903;22;45358;-81
2022/06/12 08:33:35;;;;;;;;;4.00;4.00;;;;;20.81;45.46;102137.00;6250916;22;45354;-81
2022/06/12 08:36:01;;;;;;;;;4.00;3.67;;;;;20.86;44.24;102129.75;6278502;22;46290;-81
2022/06/12 08:38:26;;;;;;;;;2.67;2.00;;;;;20.94;44.04;102133.09;6278935;22;45549;-81
2022/06/12 08:40:58;;;;;;;;;3.00;3.00;;;;;21.01;44.21;102126.69;6276799;22;45302;-81
2022/06/12 08:44:07;;;;;;;;;2.67;2.67;;;;;21.11;43.22;102128.19;6276879;22;45532;-83
2022/06/12 08:46:59;;;;;;;;;2.00;2.00;;;;;21.20;42.93;102128.88;6261673;22;45346;-82
2022/06/12 08:49:36;;;;;;;;;2.00;2.00;;;;;21.24;42.73;102112.69;6275843;22;45655;-82
2022/06/12 08:52:35;;;;;;;;;2.33;2.33;;;;;21.36;42.97;102119.53;6250664;22;45383;-81
2022/06/12 08:55:25;;;;;;;;;3.00;3.00;;;;;21.46;42.63;102125.53;6278417;22;45339;-83
2022/06/12 08:57:58;;;;;;;;;2.00;2.00;;;;;21.53;41.62;102122.66;6250843;22;46802;-83
2022/06/12 09:00:27;;;;;;;;;2.00;2.00;;;;;21.57;40.64;102118.97;6250779;22;45114;-81
2022/06/12 09:02:53;;;;;;;;;3.33;3.33;;;;;21.58;40.76;102112.69;6250840;22;45315;-81
2022/06/12 09:06:18;;;;;;;;;3.00;2.00;;;;;21.65;41.15;102115.19;6278393;22;45341;-80
2022/06/12 09:08:57;;;;;;;;;2.67;2.67;;;;;21.70;41.67;102114.13;6255400;22;46230;-80
2022/06/12 09:11:40;;;;;;;;;3.00;1.67;;;;;21.78;40.60;102116.59;6250736;22;45316;-80
2022/06/12 09:14:15;;;;;;;;;2.00;2.00;;;;;21.83;40.45;102113.81;6276472;22;45234;-80
2022/06/12 09:16:48;;;;;;;;;3.33;2.00;;;;;21.87;40.88;102108.31;6276886;22;45586;-79
2022/06/12 09:19:31;;;;;;;;;2.00;1.67;;;;;21.96;40.71;102118.75;6278449;22;45411;-79
2022/06/12 09:22:09;;;;;;;;;2.00;2.00;;;;;22.03;41.20;102103.38;6276344;22;45430;-79
2022/06/12 09:24:57;;;;;;;;;3.00;3.00;;;;;22.08;41.38;102108.59;6278522;22;45248;-80
2022/06/12 09:27:51;;;;;;;;;4.00;2.00;;;;;22.11;41.17;102108.53;6278115;22;45303;-80
2022/06/12 09:30:24;;;;;;;;;1.33;1.33;;;;;22.10;41.11;102107.63;6250446;22;47100;-82
2022/06/12 09:32:59;;;;;;;;;5.00;2.67;;;;;22.10;41.38;102114.78;6250521;22;45222;-82
2022/06/12 09:35:48;;;;;;;;;2.00;2.00;;;;;22.07;41.53;102110.38;6278511;22;45248;-81
2022/06/12 09:38:31;;;;;;;;;3.67;1.67;;;;;22.09;41.50;102105.88;6250946;22;45465;-81
2022/06/12 09:41:12;;;;;;;;;3.33;2.67;;;;;22.18;41.85;102110.06;6250582;22;46823;-82
2022/06/12 09:43:52;;;;;;;;;2.00;2.00;;;;;22.22;41.33;102109.97;6276594;22;45305;-80
2022/06/12 09:46:36;;;;;;;;;4.33;3.67;;;;;22.25;42.75;102103.63;6278486;22;45241;-82
2022/06/12 09:49:26;;;;;;;;;5.00;3.00;;;;;22.29;43.00;102107.09;6250085;22;45315;-82
2022/06/12 09:52:29;;;;;;;;;5.33;3.33;;;;;22.31;43.65;102108.81;6250018;22;45798;-82
2022/06/12 09:55:15;;;;;;;;;4.50;4.50;;;;;22.32;43.89;102102.53;6276029;22;45685;-81
2022/06/12 09:58:20;;;;;;;;;4.75;4.50;;;;;22.36;43.99;102111.34;6278454;22;45346;-83
2022/06/12 10:01:04;;;;;;;;;4.00;4.00;;;;;22.46;43.81;102110.13;6277466;22;45374;-83
2022/06/12 10:03:47;;;;;;;;;5.00;3.33;;;;;22.56;43.48;102113.38;6277556;22;45374;-83
2022/06/12 10:06:24;;;;;;;;;4.67;2.33;;;;;22.63;43.36;102110.47;6277956;22;45183;-83
2022/06/12 10:09:24;;;;;;;;;4.33;4.33;;;;;22.74;43.40;102109.25;6250482;22;45312;-83
2022/06/12 10:12:36;;;;;;;;;3.67;3.67;;;;;22.87;42.98;102114.16;6265423;22;45266;-85
2022/06/12 10:15:11;;;;;;;;;4.33;4.33;;;;;22.98;43.04;102115.66;6271682;22;45238;-84
2022/06/12 10:21:20;;;;;;;;;3.00;3.00;;;;;23.06;42.45;102106.38;6250298;22;45328;-84
2022/06/12 10:23:47;;;;;;;;;4.00;3.00;;;;;23.09;41.68;102108.09;6277982;22;45384;-84
2022/06/12 10:26:33;;;;;;;;;3.00;3.00;;;;;23.10;41.31;102104.50;6245307;22;47022;-84
2022/06/12 10:29:11;;;;;;;;;5.67;4.00;;;;;23.10;41.38;102096.44;6272343;22;45371;-83
2022/06/12 10:32:01;;;;;;;;;5.00;4.00;;;;;23.13;41.48;102099.00;6248192;22;45298;-83
2022/06/12 10:34:29;;;;;;;;;4.00;3.67;;;;;23.16;40.80;102095.34;6276182;22;45459;-83
2022/06/12 10:37:07;;;;;;;;;4.33;4.33;;;;;23.18;40.61;102101.53;6276873;22;46219;-86
2022/06/12 10:40:10;;;;;;;;;2.67;2.67;;;;;23.19;40.14;102089.84;6210657;22;45401;-86
2022/06/12 10:42:45;;;;;;;;;4.67;3.00;;;;;23.18;39.99;102088.09;6205412;22;45258;-85
2022/06/12 10:45:26;;;;;;;;;2.67;2.33;;;;;23.17;39.75;102089.03;6187138;22;45495;-84
2022/06/12 10:47:56;;;;;;;;;3.33;3.33;;;;;23.19;40.11;102068.34;6187822;22;46836;-83
2022/06/12 10:50:30;;;;;;;;;2.67;2.67;;;;;23.24;39.92;102074.44;6212309;22;45472;-83
2022/06/12 10:52:57;;;;;;;;;4.33;4.00;;;;;23.30;39.31;102063.47;6213019;22;45341;-81
2022/06/12 10:55:39;;;;;;;;;2.00;2.00;;;;;23.32;39.65;102075.91;6187332;22;45423;-79
2022/06/12 10:58:23;;;;;;;;;3.33;3.00;;;;;23.38;39.30;102066.75;6212807;22;46354;-78
2022/06/12 11:00:52;;;;;;;;;4.00;2.00;;;;;23.43;38.71;102066.59;6187630;22;45380;-81
2022/06/12 11:03:43;;;;;;;;;4.33;3.33;;;;;23.46;38.43;102070.03;6212525;22;45604;-80
2022/06/12 11:07:07;;;;;;;;;2.00;2.00;;;;;23.51;38.96;102065.38;6186221;22;45607;-80
2022/06/12 11:09:57;;;;;;;;;3.00;2.00;;;;;23.56;37.80;102057.16;6092697;23;47969;-82
2022/06/12 11:12:32;;;;;;;;;2.67;2.33;;;;;23.62;38.24;102051.53;6068422;23;45404;-81
2022/06/12 11:15:16;;;;;;;;;1.00;1.00;;;;;23.69;37.46;102057.56;6167928;22;45353;-78
2022/06/12 11:18:03;;;;;;;;;33.50;28.25;;;;;23.75;36.93;102052.88;6263643;22;45154;-79
2022/06/12 11:20:50;;;;;;;;;5.00;3.00;;;;;23.88;36.81;102031.75;6278741;22;45209;-78
2022/06/12 11:23:28;;;;;;;;;61.25;50.75;;;;;24.08;37.48;102039.03;6276797;22;45434;-79
2022/06/12 11:26:19;;;;;;;;;4.00;4.00;;;;;24.38;36.77;102030.69;6279416;22;45212;-79
2022/06/12 11:29:01;;;;;;;;;5.00;4.00;;;;;24.64;36.53;102025.13;6251096;22;45919;-78
2022/06/12 11:32:08;;;;;;;;;1.00;1.00;;;;;24.93;36.17;102024.81;6279209;22;45338;-78
2022/06/12 11:34:51;;;;;;;;;4.00;4.00;;;;;25.20;35.78;102018.22;6214383;22;45214;-79
2022/06/12 11:37:47;;;;;;;;;3.33;3.00;;;;;25.43;35.03;102017.19;6245220;22;45154;-78
2022/06/12 11:40:46;;;;;;;;;4.67;3.67;;;;;25.59;35.04;102014.66;6276818;22;45563;-78
2022/06/12 11:43:36;;;;;;;;;4.33;3.00;;;;;25.71;35.87;102010.50;6250757;22;47967;-78
2022/06/12 11:46:24;;;;;;;;;4.00;4.00;;;;;25.85;35.39;102000.00;6278804;22;45229;-78
2022/06/12 11:49:19;;;;;;;;;2.00;2.00;;;;;25.90;34.67;101994.34;6251171;22;45301;-79
2022/06/12 11:52:00;;;;;;;;;4.67;4.33;;;;;25.98;34.81;101992.16;6250743;22;45409;-79
2022/06/12 11:54:34;;;;;;;;;5.67;4.67;;;;;25.98;34.52;101992.16;6279014;22;45246;-79
2022/06/12 11:57:11;;;;;;;;;5.00;3.67;;;;;25.99;34.12;101990.34;6250725;22;45224;-79
2022/06/12 12:00:08;;;;;;;;;4.33;3.00;;;;;26.02;33.66;101985.66;6279277;22;45177;-78
2022/06/12 12:02:59;;;;;;;;;4.00;4.00;;;;;26.10;33.88;101988.00;6251124;22;45253;-79
2022/06/12 12:05:36;;;;;;;;;4.25;3.00;;;;;26.21;33.68;101984.75;6278352;22;46169;-80
2022/06/12 12:08:29;;;;;;;;;12.50;12.50;;;;;26.34;32.90;101985.91;6278938;22;45144;-79
2022/06/12 12:11:32;;;;;;;;;5.75;5.75;;;;;26.40;31.76;101982.88;6276900;22;45218;-79
2022/06/12 12:14:03;;;;;;;;;9.50;9.50;;;;;26.45;32.20;101978.13;6214787;22;45492;-79